createdAt,value
2022-09-12T00:01:26.624Z,96.28
2022-09-12T00:03:58.218Z,96.28
2022-09-12T00:06:34.570Z,96.05
2022-09-12T00:09:10.816Z,95.70
2022-09-12T00:11:41.882Z,95.68
2022-09-12T00:14:12.306Z,95.73
2022-09-12T00:16:41.322Z,95.89
2022-09-12T00:19:10.885Z,95.69
2022-09-12T00:21:40.309Z,95.46
2022-09-12T00:24:10.590Z,95.54
2022-09-12T00:26:38.909Z,95.60
2022-09-12T00:29:06.942Z,95.49
2022-09-12T00:31:35.572Z,95.42
2022-09-12T00:34:04.062Z,95.20
2022-09-12T00:36:32.206Z,95.15
2022-09-12T00:39:00.974Z,95.07
2022-09-12T00:41:32.771Z,95.14
2022-09-12T00:44:24.725Z,95.67
2022-09-12T00:47:04.845Z,95.59
2022-09-12T00:49:41.707Z,95.59
2022-09-12T00:52:17.075Z,95.72
2022-09-12T00:54:58.223Z,95.73
2022-09-12T00:57:33.280Z,95.91
2022-09-12T01:00:14.932Z,95.96
2022-09-12T01:02:46.201Z,95.92
2022-09-12T01:05:15.554Z,95.98
2022-09-12T01:07:44.871Z,95.84
2022-09-12T01:10:13.576Z,95.72
2022-09-12T01:12:43.336Z,95.54
2022-09-12T01:15:11.970Z,95.59
2022-09-12T01:18:04.673Z,95.53
2022-09-12T01:20:42.946Z,95.32
2022-09-12T01:23:31.265Z,95.23
2022-09-12T01:26:23.464Z,95.07
2022-09-12T01:29:26.888Z,95.20
2022-09-12T01:32:11.010Z,95.26
2022-09-12T01:35:00.895Z,95.26
2022-09-12T01:37:53.087Z,95.24
2022-09-12T01:40:36.179Z,95.56
2022-09-12T01:43:28.570Z,95.86
2022-09-12T01:46:05.753Z,95.74
2022-09-12T01:48:40.374Z,95.88
2022-09-12T01:51:18.791Z,96.24
2022-09-12T01:53:53.232Z,96.13
2022-09-12T01:56:29.817Z,96.04
2022-09-12T01:59:15.763Z,96.30
2022-09-12T02:01:55.694Z,95.79
2022-09-12T02:04:33.998Z,95.61
2022-09-12T02:07:27.535Z,95.55
2022-09-12T02:10:06.551Z,95.50
2022-09-12T02:12:45.026Z,95.56
2022-09-12T02:15:16.444Z,95.97
2022-09-12T02:17:49.820Z,95.77
2022-09-12T02:20:46.876Z,95.76
2022-09-12T02:23:20.791Z,95.85
2022-09-12T02:25:55.363Z,96.34
2022-09-12T02:28:27.885Z,96.63
2022-09-12T02:31:19.390Z,96.62
2022-09-12T02:34:16.558Z,96.78
2022-09-12T02:36:54.770Z,97.27
2022-09-12T02:39:23.155Z,97.31
2022-09-12T02:41:53.214Z,97.28
2022-09-12T02:44:22.692Z,97.64
2022-09-12T02:46:55.918Z,98.79
2022-09-12T02:49:24.173Z,99.73
2022-09-12T02:51:52.260Z,100.00
2022-09-12T02:54:21.294Z,100.00
2022-09-12T02:56:49.480Z,100.00
2022-09-12T02:59:21.191Z,100.00
2022-09-12T03:01:57.593Z,100.00
2022-09-12T03:04:50.244Z,100.00
2022-09-12T03:07:31.587Z,100.00
2022-09-12T03:10:34.535Z,100.00
2022-09-12T03:13:25.093Z,100.00
2022-09-12T03:16:14.071Z,100.00
2022-09-12T03:19:06.773Z,100.00
2022-09-12T03:21:40.849Z,100.00
2022-09-12T03:24:15.508Z,100.00
2022-09-12T03:27:06.190Z,100.00
2022-09-12T03:29:39.521Z,100.00
2022-09-12T03:32:08.354Z,100.00
2022-09-12T03:34:37.822Z,100.00
2022-09-12T03:37:06.428Z,100.00
2022-09-12T03:39:34.644Z,100.00
2022-09-12T03:42:03.967Z,100.00
2022-09-12T03:44:32.097Z,100.00
2022-09-12T03:47:00.533Z,100.00
2022-09-12T03:49:28.908Z,100.00
2022-09-12T03:51:57.310Z,100.00
2022-09-12T03:54:31.339Z,100.00
2022-09-12T03:56:59.772Z,100.00
2022-09-12T03:59:28.043Z,100.00
2022-09-12T04:01:56.906Z,100.00
2022-09-12T04:04:26.102Z,100.00
2022-09-12T04:07:04.357Z,100.00
2022-09-12T04:09:33.489Z,100.00
2022-09-12T04:12:01.888Z,100.00
2022-09-12T04:14:30.066Z,100.00
2022-09-12T04:16:58.597Z,100.00
2022-09-12T04:19:29.613Z,100.00
2022-09-12T04:21:57.767Z,100.00
2022-09-12T04:24:26.800Z,100.00
2022-09-12T04:26:55.244Z,100.00
2022-09-12T04:29:24.128Z,100.00
2022-09-12T04:31:52.276Z,100.00
2022-09-12T04:34:21.310Z,100.00
2022-09-12T04:36:49.840Z,100.00
2022-09-12T04:39:17.970Z,100.00
2022-09-12T04:41:46.454Z,100.00
2022-09-12T04:44:15.094Z,100.00
2022-09-12T04:46:46.929Z,100.00
2022-09-12T04:49:37.781Z,100.00
2022-09-12T04:52:26.698Z,100.00
2022-09-12T04:54:57.498Z,100.00
2022-09-12T04:57:40.007Z,100.00
2022-09-12T05:00:30.295Z,100.00
2022-09-12T05:03:20.581Z,100.00
2022-09-12T05:05:53.264Z,100.00
2022-09-12T05:08:29.960Z,100.00
2022-09-12T05:11:05.151Z,100.00
2022-09-12T05:13:37.036Z,100.00
2022-09-12T05:16:06.826Z,100.00
2022-09-12T05:18:41.634Z,100.00
2022-09-12T05:21:15.088Z,100.00
2022-09-12T05:23:49.617Z,100.00
2022-09-12T05:26:20.663Z,100.00
2022-09-12T05:28:52.275Z,100.00
2022-09-12T05:31:28.378Z,100.00
2022-09-12T05:33:57.753Z,99.97
2022-09-12T05:36:31.843Z,98.94
2022-09-12T05:39:01.165Z,97.24
2022-09-12T05:41:31.597Z,97.87
2022-09-12T05:44:03.272Z,97.24
2022-09-12T05:46:38.037Z,96.25
2022-09-12T05:49:10.980Z,95.09
2022-09-12T05:51:50.906Z,93.28
2022-09-12T05:54:21.387Z,91.01
2022-09-12T05:56:52.110Z,88.52
2022-09-12T05:59:22.748Z,89.49
2022-09-12T06:01:52.537Z,90.01
2022-09-12T06:04:20.842Z,90.49
2022-09-12T06:06:51.531Z,91.62
2022-09-12T06:09:19.938Z,92.01
2022-09-12T06:11:48.687Z,91.45
2022-09-12T06:14:18.768Z,91.77
2022-09-12T06:16:49.161Z,90.75
2022-09-12T06:19:22.402Z,90.39
2022-09-12T06:21:51.812Z,87.13
2022-09-12T06:24:21.359Z,84.71
2022-09-12T06:26:52.948Z,84.47
2022-09-12T06:29:22.316Z,80.08
2022-09-12T06:31:52.606Z,80.80
2022-09-12T06:34:25.541Z,79.76
2022-09-12T06:36:54.421Z,75.42
2022-09-12T06:39:23.860Z,74.57
2022-09-12T06:41:57.529Z,73.12
2022-09-12T06:44:35.185Z,71.99
2022-09-12T06:47:03.770Z,71.73
2022-09-12T06:49:34.604Z,69.60
2022-09-12T06:52:03.109Z,69.21
2022-09-12T06:54:34.960Z,66.74
2022-09-12T06:57:04.909Z,64.22
2022-09-12T06:59:33.070Z,63.54
2022-09-12T07:02:01.741Z,64.84
2022-09-12T07:04:30.572Z,64.07
2022-09-12T07:06:59.282Z,63.66
2022-09-12T07:09:27.562Z,64.12
2022-09-12T07:11:56.258Z,62.75
2022-09-12T07:14:26.134Z,59.89
2022-09-12T07:16:54.382Z,59.76
2022-09-12T07:19:22.620Z,59.34
2022-09-12T07:21:56.614Z,57.49
2022-09-12T07:24:27.459Z,56.12
2022-09-12T07:26:56.277Z,56.39
2022-09-12T07:29:36.655Z,56.18
2022-09-12T07:32:07.921Z,56.17
2022-09-12T07:34:37.450Z,55.23
2022-09-12T07:37:06.463Z,54.21
2022-09-12T07:39:34.622Z,54.52
2022-09-12T07:42:03.047Z,53.60
2022-09-12T07:44:32.826Z,54.02
2022-09-12T07:47:01.562Z,53.68
2022-09-12T07:49:30.848Z,53.63
2022-09-12T07:51:59.329Z,53.60
2022-09-12T07:54:28.135Z,54.44
2022-09-12T07:56:56.852Z,53.87
2022-09-12T07:59:41.849Z,54.62
2022-09-12T08:02:17.103Z,54.51
2022-09-12T08:04:48.902Z,53.48
2022-09-12T08:07:19.341Z,52.91
2022-09-12T08:09:47.795Z,53.30
2022-09-12T08:12:17.898Z,52.69
2022-09-12T08:14:46.383Z,52.77
2022-09-12T08:17:14.832Z,53.26
2022-09-12T08:19:43.077Z,52.42
2022-09-12T08:22:12.272Z,51.72
2022-09-12T08:24:41.866Z,51.74
2022-09-12T08:27:10.064Z,52.20
2022-09-12T08:29:39.223Z,52.36
2022-09-12T08:32:15.613Z,52.65
2022-09-12T08:34:44.894Z,52.15
2022-09-12T08:37:13.277Z,52.85
2022-09-12T08:39:42.099Z,51.97
2022-09-12T08:42:20.369Z,51.83
2022-09-12T08:45:17.136Z,53.16
2022-09-12T08:47:51.885Z,53.22
2022-09-12T08:50:22.721Z,50.07
2022-09-12T08:52:58.965Z,48.55
2022-09-12T08:55:36.696Z,47.54
2022-09-12T08:58:17.465Z,48.05
2022-09-12T09:00:54.265Z,48.88
2022-09-12T09:03:34.908Z,49.13
2022-09-12T09:06:18.572Z,49.81
2022-09-12T09:09:10.549Z,50.67
2022-09-12T09:12:08.286Z,49.30
2022-09-12T09:14:55.279Z,47.67
2022-09-12T09:17:29.402Z,48.05
2022-09-12T09:20:36.800Z,47.39
2022-09-12T09:23:41.305Z,47.19
2022-09-12T09:26:38.882Z,46.51
2022-09-12T09:29:14.981Z,46.86
2022-09-12T09:31:48.885Z,45.86
2022-09-12T09:34:31.749Z,45.44
2022-09-12T09:37:09.199Z,44.40
2022-09-12T09:39:53.052Z,44.24
2022-09-12T09:42:28.178Z,44.04
2022-09-12T09:45:00.554Z,43.70
2022-09-12T09:47:28.987Z,45.35
2022-09-12T09:49:57.271Z,46.19
2022-09-12T09:52:30.905Z,46.48
2022-09-12T09:55:02.118Z,46.79
2022-09-12T09:57:36.555Z,48.00
2022-09-12T10:00:21.836Z,47.26
2022-09-12T10:03:04.969Z,47.23
2022-09-12T10:05:44.258Z,46.66
2022-09-12T10:08:26.403Z,47.17
2022-09-12T10:11:20.834Z,46.81
2022-09-12T10:13:53.290Z,46.57
2022-09-12T10:16:22.279Z,45.52
2022-09-12T10:18:52.675Z,46.19
2022-09-12T10:21:41.331Z,45.52
2022-09-12T10:24:27.369Z,45.05
2022-09-12T10:27:07.498Z,44.84
2022-09-12T10:29:54.703Z,44.99
2022-09-12T10:32:31.028Z,44.79
2022-09-12T10:35:04.182Z,44.89
2022-09-12T10:37:39.593Z,44.78
2022-09-12T10:40:23.480Z,43.89
2022-09-12T10:42:54.597Z,43.62
2022-09-12T10:45:30.753Z,43.53
2022-09-12T10:48:06.804Z,43.19
2022-09-12T10:50:41.480Z,42.81
2022-09-12T10:53:20.637Z,43.04
2022-09-12T10:56:09.827Z,42.36
2022-09-12T10:59:03.543Z,42.12
2022-09-12T11:01:37.425Z,42.01
2022-09-12T11:04:05.803Z,41.51
2022-09-12T11:06:42.984Z,41.42
2022-09-12T11:09:26.665Z,41.17
2022-09-12T11:12:09.970Z,39.64
2022-09-12T11:14:52.767Z,38.86
2022-09-12T11:17:44.176Z,38.52
2022-09-12T11:20:49.496Z,38.67
2022-09-12T11:23:17.559Z,38.96
2022-09-12T11:26:02.668Z,39.73
2022-09-12T11:29:02.462Z,39.99
2022-09-12T11:31:57.246Z,39.00
2022-09-12T11:34:49.755Z,39.08
2022-09-12T11:37:20.814Z,39.17
2022-09-12T11:39:55.633Z,38.43
2022-09-12T11:42:32.049Z,37.19
2022-09-12T11:45:25.815Z,37.20
2022-09-12T11:47:58.836Z,37.38
2022-09-12T11:50:30.353Z,37.54
2022-09-12T11:53:12.563Z,36.40
2022-09-12T11:55:56.038Z,37.03
2022-09-12T11:58:28.816Z,38.51
2022-09-12T12:01:09.889Z,37.78
2022-09-12T12:03:44.760Z,37.50
2022-09-12T12:06:26.981Z,37.26
2022-09-12T12:08:55.753Z,38.21
2022-09-12T12:11:35.598Z,37.05
2022-09-12T12:14:24.036Z,37.92
2022-09-12T12:16:52.473Z,38.14
2022-09-12T12:19:34.137Z,39.29
2022-09-12T12:22:18.620Z,40.21
2022-09-12T12:25:00.299Z,40.27
2022-09-12T12:27:55.776Z,40.87
2022-09-12T12:30:56.164Z,40.47
2022-09-12T12:33:27.083Z,39.26
2022-09-12T12:35:57.952Z,38.97
2022-09-12T12:38:30.683Z,39.80
2022-09-12T12:41:16.783Z,40.28
2022-09-12T12:43:49.209Z,38.72
2022-09-12T12:46:20.495Z,39.39
2022-09-12T12:48:57.789Z,40.33
2022-09-12T12:51:37.046Z,40.47
2022-09-12T12:54:29.425Z,40.84
2022-09-12T12:57:03.073Z,40.37
2022-09-12T12:59:32.085Z,39.85
2022-09-12T13:02:00.701Z,39.83
2022-09-12T13:04:32.720Z,40.01
2022-09-12T13:07:08.827Z,39.76
2022-09-12T13:09:50.772Z,39.50
2022-09-12T13:12:27.305Z,37.94
2022-09-12T13:14:58.495Z,38.03
2022-09-12T13:17:34.896Z,38.59
2022-09-12T13:20:28.662Z,38.12
2022-09-12T13:22:57.718Z,37.43
2022-09-12T13:25:28.343Z,38.27
2022-09-12T13:28:00.710Z,38.95
2022-09-12T13:30:32.264Z,39.69
2022-09-12T13:33:10.997Z,40.53
2022-09-12T13:35:48.271Z,41.06
2022-09-12T13:38:35.016Z,41.73
2022-09-12T13:41:27.539Z,42.45
2022-09-12T13:43:56.051Z,42.57
2022-09-12T13:46:31.845Z,43.21
2022-09-12T13:49:06.174Z,43.93
2022-09-12T13:51:35.334Z,44.35
2022-09-12T13:54:05.731Z,43.89
2022-09-12T13:56:34.243Z,43.54
2022-09-12T13:59:03.227Z,42.76
2022-09-12T14:01:47.845Z,42.71
2022-09-12T14:04:42.665Z,42.91
2022-09-12T14:07:19.723Z,41.68
2022-09-12T14:09:59.909Z,41.72
2022-09-12T14:12:40.809Z,41.70
2022-09-12T14:15:22.280Z,41.68
2022-09-12T14:17:54.557Z,41.25
2022-09-12T14:20:24.452Z,41.24
2022-09-12T14:22:53.238Z,41.77
2022-09-12T14:25:25.176Z,41.64
2022-09-12T14:27:55.215Z,40.86
2022-09-12T14:30:30.902Z,40.40
2022-09-12T14:33:11.000Z,40.67
2022-09-12T14:36:10.589Z,40.36
2022-09-12T14:38:45.322Z,40.98
2022-09-12T14:41:21.382Z,39.86
2022-09-12T14:43:54.371Z,39.47
2022-09-12T14:46:34.701Z,39.52
2022-09-12T14:49:25.747Z,39.56
2022-09-12T14:52:01.241Z,39.71
2022-09-12T14:54:31.507Z,40.36
2022-09-12T14:57:07.091Z,40.44
2022-09-12T14:59:34.979Z,40.76
2022-09-12T15:02:20.194Z,41.31
2022-09-12T15:04:55.522Z,41.74
2022-09-12T15:07:38.606Z,42.64
2022-09-12T15:10:34.313Z,43.40
2022-09-12T15:13:09.208Z,44.29
2022-09-12T15:15:39.155Z,44.60
2022-09-12T15:18:07.318Z,45.20
2022-09-12T15:20:40.187Z,45.84
2022-09-12T15:23:18.690Z,46.15
2022-09-12T15:25:47.839Z,46.53
2022-09-12T15:28:21.549Z,47.03
2022-09-12T15:30:52.315Z,47.48
2022-09-12T15:33:23.099Z,47.82
2022-09-12T15:35:52.714Z,48.11
2022-09-12T15:38:26.335Z,48.32
2022-09-12T15:40:55.112Z,48.67
2022-09-12T15:43:25.082Z,49.20
2022-09-12T15:45:53.659Z,49.38
2022-09-12T15:48:22.025Z,49.97
2022-09-12T15:50:50.352Z,50.34
2022-09-12T15:53:18.471Z,51.11
2022-09-12T15:55:46.553Z,51.49
2022-09-12T15:58:14.689Z,52.10
2022-09-12T16:00:42.864Z,52.31
2022-09-12T16:03:23.012Z,52.76
2022-09-12T16:05:56.650Z,52.99
2022-09-12T16:08:25.366Z,53.42
2022-09-12T16:10:57.231Z,53.78
2022-09-12T16:13:25.791Z,53.68
2022-09-12T16:15:57.802Z,54.08
2022-09-12T16:18:26.107Z,54.22
2022-09-12T16:20:55.729Z,54.73
2022-09-12T16:23:24.746Z,54.71
2022-09-12T16:26:00.402Z,55.38
2022-09-12T16:28:29.491Z,56.46
2022-09-12T16:31:00.510Z,56.36
2022-09-12T16:33:30.052Z,58.21
2022-09-12T16:36:02.993Z,57.51
2022-09-12T16:38:32.098Z,57.42
2022-09-12T16:41:05.626Z,57.37
2022-09-12T16:43:35.945Z,57.55
2022-09-12T16:46:14.708Z,58.06
2022-09-12T16:48:49.355Z,58.42
2022-09-12T16:51:25.074Z,59.07
2022-09-12T16:53:54.980Z,59.81
2022-09-12T16:56:24.298Z,59.94
2022-09-12T16:58:54.082Z,60.10
2022-09-12T17:01:25.648Z,60.32
2022-09-12T17:03:56.432Z,60.53
2022-09-12T17:06:26.144Z,60.75
2022-09-12T17:09:00.790Z,61.05
2022-09-12T17:11:38.302Z,61.73
2022-09-12T17:14:08.617Z,61.96
2022-09-12T17:16:42.482Z,62.00
2022-09-12T17:19:20.527Z,61.81
2022-09-12T17:21:51.835Z,61.91
2022-09-12T17:24:20.959Z,61.72
2022-09-12T17:26:50.366Z,61.29
2022-09-12T17:29:18.402Z,61.31
2022-09-12T17:31:46.853Z,61.46
2022-09-12T17:34:16.399Z,61.56
2022-09-12T17:36:45.844Z,61.81
2022-09-12T17:39:14.649Z,62.02
2022-09-12T17:41:43.264Z,62.18
2022-09-12T17:44:13.499Z,62.53
2022-09-12T17:46:42.002Z,62.71
2022-09-12T17:49:18.810Z,62.89
2022-09-12T17:51:47.343Z,62.97
2022-09-12T17:54:17.858Z,63.80
2022-09-12T17:56:47.387Z,63.69
2022-09-12T17:59:21.625Z,64.83
2022-09-12T18:02:08.734Z,65.97
2022-09-12T18:04:37.885Z,67.82
2022-09-12T18:07:08.683Z,70.87
2022-09-12T18:09:36.991Z,72.36
2022-09-12T18:12:06.102Z,74.12
2022-09-12T18:14:34.328Z,77.58
2022-09-12T18:17:02.504Z,78.96
2022-09-12T18:19:30.711Z,78.87
2022-09-12T18:21:59.291Z,79.38
2022-09-12T18:24:28.033Z,80.22
2022-09-12T18:26:58.898Z,80.43
2022-09-12T18:29:28.088Z,81.26
2022-09-12T18:31:56.644Z,82.77
2022-09-12T18:34:24.905Z,82.66
2022-09-12T18:36:55.004Z,84.36
2022-09-12T18:39:27.427Z,84.18
2022-09-12T18:41:56.656Z,85.26
2022-09-12T18:44:24.791Z,85.04
2022-09-12T18:46:53.225Z,84.11
2022-09-12T18:49:21.398Z,83.39
2022-09-12T18:51:49.415Z,84.01
2022-09-12T18:54:18.103Z,85.41
2022-09-12T18:56:46.455Z,84.29
2022-09-12T18:59:15.126Z,85.11
2022-09-12T19:01:44.474Z,82.19
2022-09-12T19:04:13.834Z,81.91
2022-09-12T19:06:44.157Z,80.26
2022-09-12T19:09:15.251Z,78.28
2022-09-12T19:11:49.600Z,76.12
2022-09-12T19:14:20.228Z,75.77
2022-09-12T19:16:50.951Z,76.13
2022-09-12T19:19:19.855Z,76.18
2022-09-12T19:21:48.249Z,75.44
2022-09-12T19:24:17.315Z,75.53
2022-09-12T19:26:46.111Z,75.95
2022-09-12T19:29:16.757Z,75.93
2022-09-12T19:31:45.754Z,75.16
2022-09-12T19:34:15.484Z,74.95
2022-09-12T19:36:46.206Z,74.15
2022-09-12T19:39:17.402Z,73.88
2022-09-12T19:41:46.422Z,74.25
2022-09-12T19:44:14.911Z,74.50
2022-09-12T19:46:43.078Z,74.97
2022-09-12T19:49:13.202Z,75.27
2022-09-12T19:51:41.769Z,76.09
2022-09-12T19:54:09.940Z,76.12
2022-09-12T19:56:38.398Z,77.01
2022-09-12T19:59:06.534Z,77.39
2022-09-12T20:01:37.246Z,77.72
2022-09-12T20:04:06.808Z,77.77
2022-09-12T20:06:35.299Z,78.78
2022-09-12T20:09:03.945Z,79.75
2022-09-12T20:11:32.501Z,79.64
2022-09-12T20:14:00.615Z,79.95
2022-09-12T20:16:29.927Z,80.68
2022-09-12T20:19:01.327Z,81.25
2022-09-12T20:21:32.731Z,82.29
2022-09-12T20:24:12.085Z,82.34
2022-09-12T20:26:40.699Z,83.11
2022-09-12T20:29:10.921Z,83.23
2022-09-12T20:31:43.326Z,83.42
2022-09-12T20:34:16.366Z,82.76
2022-09-12T20:36:45.045Z,82.33
2022-09-12T20:39:15.894Z,81.67
2022-09-12T20:41:44.918Z,81.58
2022-09-12T20:44:13.128Z,81.19
2022-09-12T20:46:41.806Z,81.10
2022-09-12T20:49:10.089Z,80.75
2022-09-12T20:51:39.082Z,79.33
2022-09-12T20:54:07.995Z,78.97
2022-09-12T20:56:37.918Z,78.59
2022-09-12T20:59:06.576Z,78.59
2022-09-12T21:01:34.911Z,78.92
2022-09-12T21:04:03.632Z,79.42
2022-09-12T21:06:32.138Z,79.44
2022-09-12T21:09:00.733Z,80.02
2022-09-12T21:11:29.546Z,80.45
2022-09-12T21:13:58.668Z,80.30
2022-09-12T21:16:27.462Z,81.04
2022-09-12T21:18:58.126Z,80.71
2022-09-12T21:21:27.233Z,80.39
2022-09-12T21:23:59.910Z,80.39
2022-09-12T21:26:28.543Z,80.20
2022-09-12T21:28:56.837Z,80.10
2022-09-12T21:31:25.901Z,79.95
2022-09-12T21:33:54.177Z,79.61
2022-09-12T21:36:25.119Z,79.64
2022-09-12T21:38:53.283Z,79.86
2022-09-12T21:41:21.457Z,79.84
2022-09-12T21:43:49.964Z,79.79
2022-09-12T21:46:18.791Z,79.54
2022-09-12T21:48:46.934Z,78.73
2022-09-12T21:51:16.009Z,78.95
2022-09-12T21:53:45.290Z,79.23
2022-09-12T21:56:13.408Z,79.08
2022-09-12T21:58:41.671Z,79.37
2022-09-12T22:01:12.211Z,79.30
2022-09-12T22:03:43.104Z,79.26
2022-09-12T22:06:11.595Z,79.43
2022-09-12T22:08:40.054Z,79.26
2022-09-12T22:11:10.186Z,79.34
2022-09-12T22:13:43.715Z,79.30
2022-09-12T22:16:12.292Z,79.49
2022-09-12T22:18:42.131Z,79.53
2022-09-12T22:21:16.201Z,79.63
2022-09-12T22:24:03.087Z,79.66
2022-09-12T22:26:36.582Z,79.73
2022-09-12T22:29:04.736Z,79.93
2022-09-12T22:31:33.841Z,79.83
2022-09-12T22:34:02.409Z,79.64
2022-09-12T22:36:31.908Z,79.21
2022-09-12T22:39:01.073Z,78.87
2022-09-12T22:41:29.280Z,78.71
2022-09-12T22:43:58.412Z,78.47
2022-09-12T22:46:27.682Z,77.95
2022-09-12T22:48:55.881Z,77.70
2022-09-12T22:51:24.007Z,77.56
2022-09-12T22:53:52.273Z,77.97
2022-09-12T22:56:20.344Z,77.72
2022-09-12T22:58:48.703Z,77.81
2022-09-12T23:01:17.707Z,77.50
2022-09-12T23:03:45.955Z,77.33
2022-09-12T23:06:14.093Z,77.37
2022-09-12T23:08:42.451Z,77.31
2022-09-12T23:11:21.635Z,76.70
2022-09-12T23:13:51.063Z,76.21
2022-09-12T23:16:23.560Z,75.90
2022-09-12T23:18:51.830Z,76.10
2022-09-12T23:21:21.924Z,75.65
2022-09-12T23:23:50.862Z,75.41
2022-09-12T23:26:21.655Z,75.36
2022-09-12T23:28:53.028Z,75.62
2022-09-12T23:31:24.526Z,74.97
2022-09-12T23:33:53.734Z,74.94
2022-09-12T23:36:23.068Z,75.12
2022-09-12T23:38:51.858Z,75.27
2022-09-12T23:41:20.433Z,75.41
2022-09-12T23:43:48.711Z,75.42
2022-09-12T23:46:18.387Z,75.44
2022-09-12T23:48:46.893Z,75.43
2022-09-12T23:51:15.695Z,75.49
2022-09-12T23:53:43.907Z,75.65
2022-09-12T23:56:12.027Z,76.14
2022-09-12T23:58:40.009Z,76.38
